Impacts TAF Board INFO
FOR SITUATIONAL AWARENESS. NOT TO BE USED FOR FLIGHT PLANNING PURPOSES.
IDs:

KBWI - Baltimore-Washington, MD, US

Issued at 0845 UTC 21 Feb 2017
Updated at 0947 UTC 21 Feb 2017
Potential Impact None Slight Moderate High
Time0854Z 21/10Z 21/11Z 21/12Z 21/13Z 21/14Z 21/15Z 21/16Z 21/17Z 21/18Z 21/19Z 21/20Z 21/21Z 21/22Z
Type OBS PRVL PRVL PRVL PRVL PRVL PRVL PRVL PRVL PRVL PRVL PRVL PRVL PRVL
VIS 10 >6 >6 >6 >6 >6 >6 >6 >6 >6 >6 >6 >6 >6
CIG 250 250 250 250 250 250 250 250 250 250 -- -- -- --
Cover BKN BKN BKN BKN BKN BKN BKN BKN BKN BKN SCT SCT SCT SCT
FltCat VFR VFR VFR VFR VFR VFR VFR VFR VFR VFR VFR VFR VFR VFR
WX -- -- -- -- -- -- -- -- -- -- -- -- -- --
WDir 80 90 90 90 90 90 90 90 90 90 150 150 150 150
WSpd 6 7 7 7 7 7 7 7 7 7 7 7 7 7
WGst -- -- -- -- -- -- -- -- -- -- -- -- -- --

Raw TAF
KBWI 210845Z 2109/2212 09007KT P6SM BKN250
  FM211900 15007KT P6SM FEW050 SCT250
  FM220900 VRB03KT P6SM OVC140


Raw METAR
KBWI 210854Z 08006KT 10SM BKN250 03/M06 A3034 RMK AO2 SLP273 T00281061 51008
KBWI 210754Z 09007KT 10SM BKN250 04/M06 A3033 RMK AO2 SLP270 T00441056
KBWI 210654Z 08007KT 10SM SCT250 06/M06 A3033 RMK AO2 SLP269 T00561061

METAR Board
Radar Display
Forecast Discussion

FOR SITUATIONAL AWARENESS. NOT TO BE USED FOR FLIGHT PLANNING PURPOSES.

Page loaded:  09:47 UTC  |   01:47 AM Pacific  |   02:47 AM Mountain  |   03:47 AM Central  |   04:47 AM Eastern

 

ADVISORIES

FORECASTS

FORECASTS

OBSERVATIONS

USER TOOLS

ABOUT US